createdAt,value
2023-05-05T12:08:11.652Z,23.75
2023-05-05T12:10:39.136Z,23.44
2023-05-05T12:13:17.924Z,23.71
2023-05-05T12:15:45.249Z,23.77
2023-05-05T12:18:18.741Z,23.74
2023-05-05T12:20:46.214Z,23.74
2023-05-05T12:23:14.910Z,24.07
2023-05-05T12:25:42.271Z,24.14
2023-05-05T12:28:09.951Z,24.26
2023-05-05T12:30:37.611Z,24.48
2023-05-05T12:33:06.571Z,24.51
2023-05-05T12:35:34.669Z,24.04
2023-05-05T12:38:02.129Z,23.77
2023-05-05T12:40:47.916Z,23.68
2023-05-05T12:43:25.249Z,23.46
2023-05-05T12:46:06.729Z,23.48
2023-05-05T12:48:34.752Z,23.87
2023-05-05T12:51:16.176Z,23.81
2023-05-05T12:53:43.750Z,23.63
2023-05-05T12:56:35.283Z,23.79
2023-05-05T12:59:03.953Z,24.11
2023-05-05T13:01:31.833Z,24.04
2023-05-05T13:04:06.571Z,24.34
2023-05-05T13:06:34.056Z,24.45
2023-05-05T13:09:01.418Z,24.64
2023-05-05T13:11:28.708Z,24.74
2023-05-05T13:13:57.913Z,24.80
2023-05-05T13:16:25.386Z,24.77
2023-05-05T13:18:52.776Z,24.83
2023-05-05T13:21:20.086Z,24.99
2023-05-05T13:23:47.419Z,25.24
2023-05-05T13:26:14.834Z,25.42
2023-05-05T13:28:42.140Z,24.85
2023-05-05T13:31:10.871Z,24.05
2023-05-05T13:33:38.209Z,23.99
2023-05-05T13:36:05.792Z,24.42
2023-05-05T13:38:33.175Z,24.51
2023-05-05T13:41:00.614Z,25.05
2023-05-05T13:43:28.016Z,25.22
2023-05-05T13:46:02.881Z,24.80
2023-05-05T13:48:38.083Z,24.77
2023-05-05T13:51:06.148Z,24.59
2023-05-05T13:53:34.036Z,24.58
2023-05-05T13:56:02.852Z,24.22
2023-05-05T13:58:31.002Z,24.14
2023-05-05T14:00:58.787Z,23.93
2023-05-05T14:03:26.916Z,24.19
2023-05-05T14:05:56.840Z,24.65
2023-05-05T14:08:24.190Z,24.86
2023-05-05T14:10:52.241Z,24.99
2023-05-05T14:13:22.742Z,25.19
2023-05-05T14:15:50.121Z,25.07
2023-05-05T14:18:17.415Z,25.30
2023-05-05T14:20:44.719Z,25.56
2023-05-05T14:23:13.417Z,25.56
2023-05-05T14:25:40.721Z,25.43
2023-05-05T14:28:08.040Z,25.60
2023-05-05T14:33:20.508Z,25.36
2023-05-05T14:35:47.839Z,24.97
2023-05-05T14:38:16.568Z,24.75
2023-05-05T14:40:43.871Z,25.27
2023-05-05T14:43:11.152Z,25.19
2023-05-05T14:45:38.514Z,25.20
2023-05-05T14:48:06.039Z,24.66
2023-05-05T14:50:33.325Z,24.94
2023-05-05T14:53:00.793Z,25.14
2023-05-05T14:55:29.468Z,25.36
2023-05-05T14:57:56.837Z,25.39
2023-05-05T15:00:24.420Z,25.75
2023-05-05T15:02:51.766Z,26.14
2023-05-05T15:05:19.134Z,26.09
2023-05-05T15:07:46.448Z,25.98
2023-05-05T15:10:13.708Z,25.40
2023-05-05T15:12:42.410Z,25.65
2023-05-05T15:15:10.545Z,26.08
2023-05-05T15:17:38.155Z,26.41
2023-05-05T15:20:06.996Z,25.89
2023-05-05T15:22:34.705Z,25.37
2023-05-05T15:25:02.112Z,24.85
2023-05-05T15:27:29.460Z,25.20
2023-05-05T15:29:58.123Z,25.28
2023-05-05T15:32:27.924Z,25.19
2023-05-05T15:34:55.245Z,25.64
2023-05-05T15:37:22.609Z,25.93
2023-05-05T15:39:52.234Z,25.48
2023-05-05T15:42:19.542Z,25.92
2023-05-05T15:44:46.884Z,25.97
2023-05-05T15:47:15.593Z,25.92
2023-05-05T15:49:42.935Z,26.09
2023-05-05T15:52:10.249Z,26.44
2023-05-05T15:54:37.589Z,26.38
2023-05-05T15:57:04.971Z,26.04
2023-05-05T15:59:35.705Z,25.83
2023-05-05T16:02:03.144Z,25.82
2023-05-05T16:04:32.000Z,25.94
2023-05-05T16:06:59.320Z,25.84
2023-05-05T16:09:26.579Z,25.67
2023-05-05T16:11:53.974Z,25.85
2023-05-05T16:14:21.404Z,26.01
2023-05-05T16:16:48.839Z,25.72
2023-05-05T16:19:16.339Z,25.62
2023-05-05T16:21:45.157Z,25.73
2023-05-05T16:24:12.512Z,25.78
2023-05-05T16:26:39.814Z,25.19
2023-05-05T16:29:07.201Z,25.38
2023-05-05T16:31:34.600Z,25.29
2023-05-05T16:34:02.058Z,25.27
2023-05-05T16:36:29.525Z,25.01
2023-05-05T16:38:58.232Z,25.60
2023-05-05T16:41:25.621Z,25.83
2023-05-05T16:43:53.080Z,25.97
2023-05-05T16:46:20.419Z,26.22
2023-05-05T16:48:48.395Z,25.84
2023-05-05T16:51:15.761Z,25.98
2023-05-05T16:53:43.086Z,25.66
2023-05-05T16:56:12.774Z,25.80
2023-05-05T16:58:40.339Z,25.66
2023-05-05T17:01:07.634Z,25.57
2023-05-05T17:03:34.969Z,25.26
2023-05-05T17:06:02.333Z,25.13
2023-05-05T17:08:29.760Z,25.16
2023-05-05T17:10:57.257Z,25.33
2023-05-05T17:13:25.911Z,24.89
2023-05-05T17:15:53.334Z,24.67
2023-05-05T17:18:20.660Z,24.91
2023-05-05T17:20:49.371Z,24.64
2023-05-05T17:23:16.754Z,24.69
2023-05-05T17:25:44.157Z,24.63
2023-05-05T17:28:11.554Z,24.76
2023-05-05T17:30:40.273Z,24.61
2023-05-05T17:33:07.700Z,24.33
2023-05-05T17:35:35.083Z,24.08
2023-05-05T17:38:02.439Z,24.23
2023-05-05T17:40:29.804Z,24.58
2023-05-05T17:42:57.107Z,24.45
2023-05-05T17:45:24.551Z,24.54
2023-05-05T17:47:56.191Z,24.39
2023-05-05T17:50:23.562Z,24.48
2023-05-05T17:52:50.872Z,24.33
2023-05-05T17:55:18.357Z,24.46
2023-05-05T17:57:45.615Z,24.37
2023-05-05T18:00:13.964Z,24.45
2023-05-05T18:02:41.695Z,24.24
2023-05-05T18:05:10.658Z,24.34
2023-05-05T18:07:38.301Z,24.37
2023-05-05T18:10:07.512Z,23.98
2023-05-05T18:12:34.873Z,23.78
2023-05-05T18:15:02.680Z,24.00
2023-05-05T18:17:30.031Z,24.08
2023-05-05T18:19:57.369Z,23.86
2023-05-05T18:22:26.104Z,23.79
2023-05-05T18:24:53.496Z,23.92
2023-05-05T18:27:20.861Z,23.97
2023-05-05T18:29:48.136Z,24.01
2023-05-05T18:32:15.430Z,23.87
2023-05-05T18:34:42.794Z,23.99
2023-05-05T18:37:10.188Z,23.79
2023-05-05T18:39:38.877Z,23.84
2023-05-05T18:42:06.135Z,23.72
2023-05-05T18:44:33.616Z,23.72
2023-05-05T18:47:01.151Z,23.75
2023-05-05T18:49:30.392Z,23.70
2023-05-05T18:51:58.724Z,23.71
2023-05-05T18:54:26.030Z,23.66
2023-05-05T18:56:54.784Z,23.66
2023-05-05T18:59:22.313Z,23.55
2023-05-05T19:01:49.643Z,23.47
2023-05-05T19:04:30.199Z,23.40
2023-05-05T19:06:58.557Z,23.33
2023-05-05T19:09:26.064Z,23.27
2023-05-05T19:11:54.728Z,23.19
2023-05-05T19:14:22.617Z,23.05
2023-05-05T19:16:50.285Z,22.95
2023-05-05T19:19:17.714Z,22.89
2023-05-05T19:21:45.015Z,22.77
2023-05-05T19:24:12.334Z,22.68
2023-05-05T19:26:39.721Z,22.61
2023-05-05T19:29:08.412Z,22.57
2023-05-05T19:31:35.759Z,22.43
2023-05-05T19:34:04.700Z,22.40
2023-05-05T19:36:32.926Z,22.36
2023-05-05T19:39:00.563Z,22.28
2023-05-05T19:41:27.990Z,22.26
2023-05-05T19:43:55.290Z,22.19
2023-05-05T19:46:24.266Z,22.14
2023-05-05T19:48:51.704Z,22.11
2023-05-05T19:51:19.006Z,22.03
2023-05-05T19:53:46.419Z,21.91
2023-05-05T19:56:13.699Z,21.89
2023-05-05T19:58:57.656Z,21.76
2023-05-05T20:01:26.948Z,21.79
2023-05-05T20:03:56.579Z,21.70
2023-05-05T20:06:24.455Z,21.60
2023-05-05T20:08:51.901Z,21.53
2023-05-05T20:11:19.211Z,21.34
2023-05-05T20:13:46.650Z,21.33
2023-05-05T20:16:14.019Z,21.29
2023-05-05T20:18:42.807Z,21.33
2023-05-05T20:21:10.202Z,21.31
2023-05-05T20:23:37.545Z,21.31
2023-05-05T20:26:04.916Z,21.24
2023-05-05T20:28:32.293Z,21.12
2023-05-05T20:30:59.694Z,20.92
2023-05-05T20:33:27.495Z,20.72
2023-05-05T20:35:56.236Z,20.76
2023-05-05T20:38:23.600Z,20.75
2023-05-05T20:40:50.947Z,20.63
2023-05-05T20:43:18.315Z,20.68
2023-05-05T20:45:45.671Z,20.56
2023-05-05T20:48:12.961Z,20.52
2023-05-05T20:50:41.074Z,20.55
2023-05-05T20:53:11.914Z,20.60
2023-05-05T20:55:39.528Z,20.64
2023-05-05T20:58:06.871Z,20.61
2023-05-05T21:00:34.299Z,20.52
2023-05-05T21:03:01.765Z,20.22
2023-05-05T21:05:29.953Z,20.15
2023-05-05T21:07:58.543Z,19.86
2023-05-05T21:10:29.257Z,19.88
2023-05-05T21:12:56.615Z,19.97
2023-05-05T21:15:24.183Z,19.89
2023-05-05T21:17:51.553Z,19.86
2023-05-05T21:20:19.189Z,19.88
2023-05-05T21:22:46.606Z,19.83
2023-05-05T21:25:16.986Z,19.81
2023-05-05T21:27:47.213Z,19.89
2023-05-05T21:30:15.163Z,19.83
2023-05-05T21:32:42.660Z,19.60
2023-05-05T21:35:10.033Z,19.66
2023-05-05T21:37:38.216Z,19.53
2023-05-05T21:40:06.627Z,19.39
2023-05-05T21:42:33.928Z,19.24
2023-05-05T21:45:02.652Z,19.25
2023-05-05T21:47:30.031Z,19.07
2023-05-05T21:49:57.911Z,19.15
2023-05-05T21:52:25.361Z,19.19
2023-05-05T21:54:52.680Z,19.25
2023-05-05T21:57:20.059Z,19.20
2023-05-05T21:59:47.448Z,19.23
2023-05-05T22:02:16.135Z,19.22
2023-05-05T22:04:43.460Z,19.24
2023-05-05T22:07:10.769Z,19.25
2023-05-05T22:09:38.173Z,19.30
2023-05-05T22:12:05.910Z,19.32
2023-05-05T22:14:33.242Z,19.27
2023-05-05T22:17:00.583Z,19.13
2023-05-05T22:19:29.272Z,18.90
2023-05-05T22:21:57.817Z,18.92
2023-05-05T22:24:25.142Z,18.91
2023-05-05T22:26:52.517Z,18.95
2023-05-05T22:29:19.844Z,19.01
2023-05-05T22:31:47.193Z,18.95
2023-05-05T22:34:14.976Z,18.92
2023-05-05T22:36:43.677Z,18.97
2023-05-05T22:39:10.979Z,18.93
2023-05-05T22:41:38.302Z,18.93
2023-05-05T22:44:05.741Z,18.98
2023-05-05T22:46:33.158Z,19.00
2023-05-05T22:49:00.573Z,18.98
2023-05-05T22:51:27.896Z,18.94
2023-05-05T22:53:56.664Z,18.93
2023-05-05T22:56:23.935Z,18.87
2023-05-05T22:58:51.204Z,18.86
2023-05-05T23:01:18.613Z,18.84
2023-05-05T23:03:45.937Z,18.77
2023-05-05T23:06:13.196Z,18.76
2023-05-05T23:08:40.535Z,18.75
2023-05-05T23:11:09.184Z,18.65
2023-05-05T23:13:36.494Z,18.60
2023-05-05T23:16:04.295Z,18.56
2023-05-05T23:18:31.655Z,18.52
2023-05-05T23:20:59.046Z,18.50
2023-05-05T23:23:26.357Z,18.50
2023-05-05T23:25:53.660Z,18.51
2023-05-05T23:28:22.366Z,18.56
2023-05-05T23:30:49.697Z,18.38
2023-05-05T23:33:17.017Z,18.41
2023-05-05T23:35:44.326Z,18.41
2023-05-05T23:38:11.650Z,18.46
2023-05-05T23:40:38.920Z,18.43
2023-05-05T23:43:06.210Z,18.39
2023-05-05T23:45:34.900Z,18.39
2023-05-05T23:48:02.266Z,18.39
2023-05-05T23:50:29.676Z,18.31
2023-05-05T23:52:56.961Z,18.15
2023-05-05T23:55:24.568Z,18.07
2023-05-05T23:57:51.887Z,17.92
